sensor_id;sensor_type;location;lat;lon;timestamp;pressure;altitude;pressure_sealevel;temperature;humidity
69187;BME280;56301;56.864;60.554;2022-12-18T00:00:54;99880.97;;;25.47;34.04
69187;BME280;56301;56.864;60.554;2022-12-18T00:03:16;99890.94;;;25.46;33.44
69187;BME280;56301;56.864;60.554;2022-12-18T00:05:45;99884.69;;;25.45;33.60
69187;BME280;56301;56.864;60.554;2022-12-18T00:08:08;99890.09;;;25.45;33.32
69187;BME280;56301;56.864;60.554;2022-12-18T00:10:30;99889.22;;;25.45;33.53
69187;BME280;56301;56.864;60.554;2022-12-18T00:12:53;99885.53;;;25.46;33.76
69187;BME280;56301;56.864;60.554;2022-12-18T00:15:15;99879.41;;;25.44;33.33
69187;BME280;56301;56.864;60.554;2022-12-18T00:17:38;99878.38;;;25.45;33.23
69187;BME280;56301;56.864;60.554;2022-12-18T00:20:00;99888.25;;;25.46;33.41
69187;BME280;56301;56.864;60.554;2022-12-18T00:22:22;99890.09;;;25.45;33.37
69187;BME280;56301;56.864;60.554;2022-12-18T00:24:45;99878.38;;;25.45;33.29
69187;BME280;56301;56.864;60.554;2022-12-18T00:27:07;99884.81;;;25.44;33.69
69187;BME280;56301;56.864;60.554;2022-12-18T00:29:30;99882.13;;;25.44;33.88
69187;BME280;56301;56.864;60.554;2022-12-18T00:31:52;99897.53;;;25.43;33.61
69187;BME280;56301;56.864;60.554;2022-12-18T00:34:14;99892.97;;;25.44;33.82
69187;BME280;56301;56.864;60.554;2022-12-18T00:36:37;99901.09;;;25.44;32.73
69187;BME280;56301;56.864;60.554;2022-12-18T00:39:01;99902.09;;;25.43;33.18
69187;BME280;56301;56.864;60.554;2022-12-18T00:41:24;99897.72;;;25.42;33.76
69187;BME280;56301;56.864;60.554;2022-12-18T00:43:47;99899.53;;;25.41;34.08
69187;BME280;56301;56.864;60.554;2022-12-18T00:46:09;99896.81;;;25.41;34.04
69187;BME280;56301;56.864;60.554;2022-12-18T00:48:32;99883.28;;;25.41;33.38
69187;BME280;56301;56.864;60.554;2022-12-18T00:50:54;99888.69;;;25.41;33.49
69187;BME280;56301;56.864;60.554;2022-12-18T00:53:16;99887.84;;;25.41;33.63
69187;BME280;56301;56.864;60.554;2022-12-18T00:55:39;99887.84;;;25.41;33.38
69187;BME280;56301;56.864;60.554;2022-12-18T00:58:02;99883.47;;;25.40;33.58
69187;BME280;56301;56.864;60.554;2022-12-18T01:00:24;99877.00;;;25.41;33.19
69187;BME280;56301;56.864;60.554;2022-12-18T01:02:47;99866.03;;;25.42;32.49
69187;BME280;56301;56.864;60.554;2022-12-18T01:05:10;99859.59;;;25.43;32.98
69187;BME280;56301;56.864;60.554;2022-12-18T01:07:33;99863.16;;;25.44;33.32
69187;BME280;56301;56.864;60.554;2022-12-18T01:09:56;99853.84;;;25.47;33.26
69187;BME280;56301;56.864;60.554;2022-12-18T01:12:18;99847.59;;;25.46;32.55
69187;BME280;56301;56.864;60.554;2022-12-18T01:14:41;99847.59;;;25.46;33.24
69187;BME280;56301;56.864;60.554;2022-12-18T01:17:03;99845.88;;;25.45;33.58
69187;BME280;56301;56.864;60.554;2022-12-18T01:19:28;99845.03;;;25.44;32.99
69187;BME280;56301;56.864;60.554;2022-12-18T01:21:51;99841.47;;;25.44;33.13
69187;BME280;56301;56.864;60.554;2022-12-18T01:24:13;99824.38;;;25.43;33.25
69187;BME280;56301;56.864;60.554;2022-12-18T01:26:36;99834.38;;;25.43;33.34
69187;BME280;56301;56.864;60.554;2022-12-18T01:28:58;99825.53;;;25.41;33.25
69187;BME280;56301;56.864;60.554;2022-12-18T01:31:22;99833.66;;;25.41;33.17
69187;BME280;56301;56.864;60.554;2022-12-18T01:33:44;99830.63;;;25.44;33.18
69187;BME280;56301;56.864;60.554;2022-12-18T01:36:17;99830.63;;;25.44;33.34
69187;BME280;56301;56.864;60.554;2022-12-18T01:38:39;99828.63;;;25.46;33.11
69187;BME280;56301;56.864;60.554;2022-12-18T01:41:02;99827.59;;;25.47;33.22
69187;BME280;56301;56.864;60.554;2022-12-18T01:43:41;99811.53;;;25.45;33.66
69187;BME280;56301;56.864;60.554;2022-12-18T01:46:04;99810.81;;;25.43;33.69
69187;BME280;56301;56.864;60.554;2022-12-18T01:48:26;99801.84;;;25.43;33.66
69187;BME280;56301;56.864;60.554;2022-12-18T01:50:49;99788.31;;;25.43;33.03
69187;BME280;56301;56.864;60.554;2022-12-18T01:53:13;99792.88;;;25.42;32.74
69187;BME280;56301;56.864;60.554;2022-12-18T01:58:08;99796.44;;;25.43;32.93
69187;BME280;56301;56.864;60.554;2022-12-18T02:00:31;99792.03;;;25.42;33.50
69187;BME280;56301;56.864;60.554;2022-12-18T02:02:54;99786.63;;;25.42;33.34
69187;BME280;56301;56.864;60.554;2022-12-18T02:05:19;99784.91;;;25.41;33.27
69187;BME280;56301;56.864;60.554;2022-12-18T02:10:32;99780.50;;;25.40;33.00
69187;BME280;56301;56.864;60.554;2022-12-18T02:15:58;99766.94;;;25.40;33.20
69187;BME280;56301;56.864;60.554;2022-12-18T02:18:23;99765.59;;;25.44;33.38
69187;BME280;56301;56.864;60.554;2022-12-18T02:20:49;99758.84;;;25.48;33.28
69187;BME280;56301;56.864;60.554;2022-12-18T02:28:28;99754.78;;;25.44;34.08
69187;BME280;56301;56.864;60.554;2022-12-18T02:30:54;99758.66;;;25.41;33.98
69187;BME280;56301;56.864;60.554;2022-12-18T02:33:18;99757.81;;;25.41;34.06
69187;BME280;56301;56.864;60.554;2022-12-18T02:35:41;99759.66;;;25.40;34.18
69187;BME280;56301;56.864;60.554;2022-12-18T02:38:04;99760.69;;;25.39;34.38
69187;BME280;56301;56.864;60.554;2022-12-18T02:40:30;99760.69;;;25.39;34.42
69187;BME280;56301;56.864;60.554;2022-12-18T02:42:55;99752.72;;;25.38;33.98
69187;BME280;56301;56.864;60.554;2022-12-18T02:45:17;99743.91;;;25.36;34.59
69187;BME280;56301;56.864;60.554;2022-12-18T02:47:42;99740.19;;;25.37;34.14
69187;BME280;56301;56.864;60.554;2022-12-18T02:50:17;99741.88;;;25.38;32.92
69187;BME280;56301;56.864;60.554;2022-12-18T02:57:55;99756.63;;;25.43;33.38
69187;BME280;56301;56.864;60.554;2022-12-18T03:00:29;99748.31;;;25.45;33.03
69187;BME280;56301;56.864;60.554;2022-12-18T03:05:24;99734.78;;;25.45;32.75
69187;BME280;56301;56.864;60.554;2022-12-18T03:07:55;99728.38;;;25.46;32.74
69187;BME280;56301;56.864;60.554;2022-12-18T03:10:21;99738.19;;;25.47;33.09
69187;BME280;56301;56.864;60.554;2022-12-18T03:12:47;99739.88;;;25.48;33.28
69187;BME280;56301;56.864;60.554;2022-12-18T03:15:18;99730.06;;;25.47;33.27
69187;BME280;56301;56.864;60.554;2022-12-18T03:17:50;99722.94;;;25.46;32.85
69187;BME280;56301;56.864;60.554;2022-12-18T03:20:15;99714.13;;;25.44;33.67
69187;BME280;56301;56.864;60.554;2022-12-18T03:22:39;99697.88;;;25.44;33.36
69187;BME280;56301;56.864;60.554;2022-12-18T03:25:06;99704.00;;;25.46;33.09
69187;BME280;56301;56.864;60.554;2022-12-18T03:27:32;99700.94;;;25.49;33.40
69187;BME280;56301;56.864;60.554;2022-12-18T03:30:04;99697.88;;;25.52;32.93
69187;BME280;56301;56.864;60.554;2022-12-18T03:32:28;99684.00;;;25.55;33.09
69187;BME280;56301;56.864;60.554;2022-12-18T03:34:55;99700.25;;;25.55;33.35
69187;BME280;56301;56.864;60.554;2022-12-18T03:37:20;99706.00;;;25.52;32.72
69187;BME280;56301;56.864;60.554;2022-12-18T03:39:43;99707.88;;;25.52;33.34
69187;BME280;56301;56.864;60.554;2022-12-18T03:42:07;99695.16;;;25.52;32.62
69187;BME280;56301;56.864;60.554;2022-12-18T03:44:38;99696.00;;;25.53;33.07
69187;BME280;56301;56.864;60.554;2022-12-18T03:49:36;99693.16;;;25.54;33.56
69187;BME280;56301;56.864;60.554;2022-12-18T03:52:06;99694.00;;;25.55;33.36
69187;BME280;56301;56.864;60.554;2022-12-18T03:54:34;99702.13;;;25.55;33.20
69187;BME280;56301;56.864;60.554;2022-12-18T03:57:06;99701.94;;;25.56;32.97
69187;BME280;56301;56.864;60.554;2022-12-18T03:59:30;99711.81;;;25.57;32.75
69187;BME280;56301;56.864;60.554;2022-12-18T04:01:54;99719.94;;;25.57;33.15
69187;BME280;56301;56.864;60.554;2022-12-18T04:04:20;99718.22;;;25.56;33.43
69187;BME280;56301;56.864;60.554;2022-12-18T04:06:44;99695.53;;;25.57;33.30
69187;BME280;56301;56.864;60.554;2022-12-18T04:09:09;99706.38;;;25.57;33.24
69187;BME280;56301;56.864;60.554;2022-12-18T04:11:35;99688.41;;;25.56;33.43
69187;BME280;56301;56.864;60.554;2022-12-18T04:14:02;99710.06;;;25.56;33.55
69187;BME280;56301;56.864;60.554;2022-12-18T04:16:25;99704.00;;;25.54;33.94
69187;BME280;56301;56.864;60.554;2022-12-18T04:18:52;99697.03;;;25.52;33.22
69187;BME280;56301;56.864;60.554;2022-12-18T04:21:16;99687.03;;;25.52;33.49
69187;BME280;56301;56.864;60.554;2022-12-18T04:23:39;99692.31;;;25.54;33.17
69187;BME280;56301;56.864;60.554;2022-12-18T04:26:02;99694.84;;;25.55;32.75
69187;BME280;56301;56.864;60.554;2022-12-18T04:28:50;99700.97;;;25.57;32.81
69187;BME280;56301;56.864;60.554;2022-12-18T04:31:13;99712.47;;;25.59;32.27
69187;BME280;56301;56.864;60.554;2022-12-18T04:33:35;99708.91;;;25.59;32.56
69187;BME280;56301;56.864;60.554;2022-12-18T04:35:59;99713.16;;;25.61;32.92
69187;BME280;56301;56.864;60.554;2022-12-18T04:38:21;99721.28;;;25.61;33.42
69187;BME280;56301;56.864;60.554;2022-12-18T04:40:52;99715.03;;;25.61;33.00
69187;BME280;56301;56.864;60.554;2022-12-18T04:43:21;99709.09;;;25.57;33.40
69187;BME280;56301;56.864;60.554;2022-12-18T04:45:43;99708.06;;;25.58;32.96
69187;BME280;56301;56.864;60.554;2022-12-18T04:48:06;99698.41;;;25.56;33.85
69187;BME280;56301;56.864;60.554;2022-12-18T04:50:28;99687.06;;;25.60;33.36
69187;BME280;56301;56.864;60.554;2022-12-18T04:52:51;99690.31;;;25.64;34.00
69187;BME280;56301;56.864;60.554;2022-12-18T04:55:13;99687.22;;;25.67;33.00
69187;BME280;56301;56.864;60.554;2022-12-18T04:57:36;99682.69;;;25.67;33.20
69187;BME280;56301;56.864;60.554;2022-12-18T04:59:58;99686.38;;;25.66;33.17
69187;BME280;56301;56.864;60.554;2022-12-18T05:02:21;99670.47;;;25.63;33.43
69187;BME280;56301;56.864;60.554;2022-12-18T05:04:44;99666.06;;;25.62;33.03
69187;BME280;56301;56.864;60.554;2022-12-18T05:07:06;99667.09;;;25.61;33.49
69187;BME280;56301;56.864;60.554;2022-12-18T05:09:29;99670.47;;;25.63;32.97
69187;BME280;56301;56.864;60.554;2022-12-18T05:11:52;99652.19;;;25.65;32.73
69187;BME280;56301;56.864;60.554;2022-12-18T05:14:14;99655.59;;;25.67;32.90
69187;BME280;56301;56.864;60.554;2022-12-18T05:16:37;99656.91;;;25.63;32.83
69187;BME280;56301;56.864;60.554;2022-12-18T05:19:00;99641.66;;;25.62;33.05
69187;BME280;56301;56.864;60.554;2022-12-18T05:21:22;99632.50;;;25.63;33.57
69187;BME280;56301;56.864;60.554;2022-12-18T05:23:45;99629.13;;;25.61;33.32
69187;BME280;56301;56.864;60.554;2022-12-18T05:26:08;99631.00;;;25.61;33.44
69187;BME280;56301;56.864;60.554;2022-12-18T05:28:31;99632.50;;;25.63;33.08
69187;BME280;56301;56.864;60.554;2022-12-18T05:30:55;99628.97;;;25.63;32.90
69187;BME280;56301;56.864;60.554;2022-12-18T05:33:18;99631.66;;;25.63;33.85
69187;BME280;56301;56.864;60.554;2022-12-18T05:35:41;99624.75;;;25.60;33.58
69187;BME280;56301;56.864;60.554;2022-12-18T05:38:03;99611.19;;;25.60;33.20
69187;BME280;56301;56.864;60.554;2022-12-18T05:40:26;99607.47;;;25.61;33.54
69187;BME280;56301;56.864;60.554;2022-12-18T05:42:49;99599.47;;;25.60;33.51
69187;BME280;56301;56.864;60.554;2022-12-18T05:45:11;99607.47;;;25.61;33.07
69187;BME280;56301;56.864;60.554;2022-12-18T05:47:33;99597.66;;;25.60;33.88
69187;BME280;56301;56.864;60.554;2022-12-18T05:49:56;99592.22;;;25.60;33.67
69187;BME280;56301;56.864;60.554;2022-12-18T05:52:18;99586.97;;;25.59;33.05
69187;BME280;56301;56.864;60.554;2022-12-18T05:54:41;99586.97;;;25.59;33.47
69187;BME280;56301;56.864;60.554;2022-12-18T05:57:04;99574.44;;;25.58;33.72
69187;BME280;56301;56.864;60.554;2022-12-18T05:59:27;99575.28;;;25.58;33.21
69187;BME280;56301;56.864;60.554;2022-12-18T06:01:49;99567.47;;;25.63;33.48
69187;BME280;56301;56.864;60.554;2022-12-18T06:04:12;99564.78;;;25.55;33.06
69187;BME280;56301;56.864;60.554;2022-12-18T06:06:34;99558.66;;;25.45;33.70
69187;BME280;56301;56.864;60.554;2022-12-18T06:08:57;99546.47;;;25.41;33.33
69187;BME280;56301;56.864;60.554;2022-12-18T06:11:21;99544.28;;;25.36;33.56
69187;BME280;56301;56.864;60.554;2022-12-18T06:13:44;99541.75;;;25.35;34.13
69187;BME280;56301;56.864;60.554;2022-12-18T06:16:07;99537.50;;;25.32;33.10
69187;BME280;56301;56.864;60.554;2022-12-18T06:18:29;99534.81;;;25.32;33.85
69187;BME280;56301;56.864;60.554;2022-12-18T06:20:56;99532.94;;;25.33;33.59
69187;BME280;56301;56.864;60.554;2022-12-18T06:23:18;99534.63;;;25.34;33.79
69187;BME280;56301;56.864;60.554;2022-12-18T06:25:41;99536.34;;;25.35;33.40
69187;BME280;56301;56.864;60.554;2022-12-18T06:28:04;99546.31;;;25.34;33.63
69187;BME280;56301;56.864;60.554;2022-12-18T06:30:26;99533.13;;;25.31;32.86
69187;BME280;56301;56.864;60.554;2022-12-18T06:32:49;99532.25;;;25.31;33.50
69187;BME280;56301;56.864;60.554;2022-12-18T06:35:12;99531.25;;;25.32;33.23
69187;BME280;56301;56.864;60.554;2022-12-18T06:37:35;99531.75;;;25.35;33.00
69187;BME280;56301;56.864;60.554;2022-12-18T06:39:57;99526.00;;;25.38;33.68
69187;BME280;56301;56.864;60.554;2022-12-18T06:42:22;99527.69;;;25.39;33.34
69187;BME280;56301;56.864;60.554;2022-12-18T06:44:44;99530.56;;;25.38;33.68
69187;BME280;56301;56.864;60.554;2022-12-18T06:47:07;99524.16;;;25.39;33.04
69187;BME280;56301;56.864;60.554;2022-12-18T06:49:29;99521.09;;;25.42;32.84
69187;BME280;56301;56.864;60.554;2022-12-18T06:51:52;99522.44;;;25.46;33.63
69187;BME280;56301;56.864;60.554;2022-12-18T06:54:15;99520.41;;;25.48;33.46
69187;BME280;56301;56.864;60.554;2022-12-18T06:56:37;99522.44;;;25.46;33.27
69187;BME280;56301;56.864;60.554;2022-12-18T06:59:00;99515.66;;;25.50;34.33
69187;BME280;56301;56.864;60.554;2022-12-18T07:01:22;99513.81;;;25.51;33.83
69187;BME280;56301;56.864;60.554;2022-12-18T07:03:44;99492.31;;;25.49;33.71
69187;BME280;56301;56.864;60.554;2022-12-18T07:06:12;99492.97;;;25.43;34.50
69187;BME280;56301;56.864;60.554;2022-12-18T07:08:35;99489.44;;;25.42;33.91
69187;BME280;56301;56.864;60.554;2022-12-18T07:10:57;99480.28;;;25.43;34.37
69187;BME280;56301;56.864;60.554;2022-12-18T07:13:20;99473.00;;;25.44;34.08
69187;BME280;56301;56.864;60.554;2022-12-18T07:15:43;99468.59;;;25.43;34.43
69187;BME280;56301;56.864;60.554;2022-12-18T07:18:05;99464.88;;;25.44;34.16
69187;BME280;56301;56.864;60.554;2022-12-18T07:20:28;99451.50;;;25.42;33.93
69187;BME280;56301;56.864;60.554;2022-12-18T07:22:50;99448.78;;;25.42;33.96
69187;BME280;56301;56.864;60.554;2022-12-18T07:25:13;99443.19;;;25.44;33.93
69187;BME280;56301;56.864;60.554;2022-12-18T07:27:35;99438.59;;;25.53;33.94
69187;BME280;56301;56.864;60.554;2022-12-18T07:29:57;99437.41;;;25.55;34.23
69187;BME280;56301;56.864;60.554;2022-12-18T07:32:20;99448.94;;;25.57;34.09
69187;BME280;56301;56.864;60.554;2022-12-18T07:34:42;99442.81;;;25.55;33.82
69187;BME280;56301;56.864;60.554;2022-12-18T07:37:05;99440.47;;;25.52;34.03
69187;BME280;56301;56.864;60.554;2022-12-18T07:39:27;99438.78;;;25.51;34.60
69187;BME280;56301;56.864;60.554;2022-12-18T07:41:49;99443.34;;;25.51;34.60
69187;BME280;56301;56.864;60.554;2022-12-18T07:44:12;99444.53;;;25.48;34.60
69187;BME280;56301;56.864;60.554;2022-12-18T07:46:34;99450.13;;;25.47;34.69
69187;BME280;56301;56.864;60.554;2022-12-18T07:48:57;99441.31;;;25.44;34.08
69187;BME280;56301;56.864;60.554;2022-12-18T07:51:19;99441.31;;;25.44;34.35
69187;BME280;56301;56.864;60.554;2022-12-18T07:53:42;99436.75;;;25.45;34.35
69187;BME280;56301;56.864;60.554;2022-12-18T07:56:05;99437.78;;;25.44;34.37
69187;BME280;56301;56.864;60.554;2022-12-18T07:58:28;99435.06;;;25.44;34.47
69187;BME280;56301;56.864;60.554;2022-12-18T08:00:51;99430.34;;;25.46;34.69
69187;BME280;56301;56.864;60.554;2022-12-18T08:03:13;99437.25;;;25.49;33.92
69187;BME280;56301;56.864;60.554;2022-12-18T08:05:36;99436.06;;;25.51;34.78
69187;BME280;56301;56.864;60.554;2022-12-18T08:07:58;99440.47;;;25.52;34.66
69187;BME280;56301;56.864;60.554;2022-12-18T08:10:21;99441.28;;;25.53;34.62
69187;BME280;56301;56.864;60.554;2022-12-18T08:12:44;99436.75;;;25.53;34.96
69187;BME280;56301;56.864;60.554;2022-12-18T08:15:06;99430.66;;;25.51;35.02
69187;BME280;56301;56.864;60.554;2022-12-18T08:17:29;99418.78;;;25.52;35.38
69187;BME280;56301;56.864;60.554;2022-12-18T08:19:51;99418.44;;;25.55;33.80
69187;BME280;56301;56.864;60.554;2022-12-18T08:22:14;99421.84;;;25.57;34.61
69187;BME280;56301;56.864;60.554;2022-12-18T08:24:36;99410.16;;;25.57;35.38
69187;BME280;56301;56.864;60.554;2022-12-18T08:26:59;99405.91;;;25.54;35.15
69187;BME280;56301;56.864;60.554;2022-12-18T08:29:21;99404.22;;;25.53;34.58
69187;BME280;56301;56.864;60.554;2022-12-18T08:31:44;99400.84;;;25.51;35.09
69187;BME280;56301;56.864;60.554;2022-12-18T08:34:07;99392.72;;;25.51;34.93
69187;BME280;56301;56.864;60.554;2022-12-18T08:36:30;99390.84;;;25.52;35.07
69187;BME280;56301;56.864;60.554;2022-12-18T08:38:52;99384.25;;;25.54;35.49
69187;BME280;56301;56.864;60.554;2022-12-18T08:41:15;99363.75;;;25.52;35.25
69187;BME280;56301;56.864;60.554;2022-12-18T08:43:38;99349.53;;;25.50;35.27
69187;BME280;56301;56.864;60.554;2022-12-18T08:46:01;99351.56;;;25.48;35.42
69187;BME280;56301;56.864;60.554;2022-12-18T08:48:23;99356.16;;;25.47;34.93
69187;BME280;56301;56.864;60.554;2022-12-18T08:50:58;99343.63;;;25.46;35.29
69187;BME280;56301;56.864;60.554;2022-12-18T08:53:21;99341.22;;;25.51;35.20
69187;BME280;56301;56.864;60.554;2022-12-18T08:55:43;99342.75;;;25.54;34.49
69187;BME280;56301;56.864;60.554;2022-12-18T08:58:05;99336.66;;;25.52;34.84
69187;BME280;56301;56.864;60.554;2022-12-18T09:00:28;99335.16;;;25.49;35.48
69187;BME280;56301;56.864;60.554;2022-12-18T09:02:50;99322.59;;;25.48;35.04
69187;BME280;56301;56.864;60.554;2022-12-18T09:05:13;99330.75;;;25.48;35.31
69187;BME280;56301;56.864;60.554;2022-12-18T09:07:35;99319.06;;;25.48;35.64
69187;BME280;56301;56.864;60.554;2022-12-18T09:09:58;99314.66;;;25.47;35.03
69187;BME280;56301;56.864;60.554;2022-12-18T09:12:20;99320.25;;;25.45;35.04
69187;BME280;56301;56.864;60.554;2022-12-18T09:14:42;99320.44;;;25.43;35.48
69187;BME280;56301;56.864;60.554;2022-12-18T09:17:05;99321.47;;;25.42;35.01
69187;BME280;56301;56.864;60.554;2022-12-18T09:19:27;99315.19;;;25.42;35.30
69187;BME280;56301;56.864;60.554;2022-12-18T09:21:50;99315.84;;;25.44;35.50
69187;BME280;56301;56.864;60.554;2022-12-18T09:24:13;99316.53;;;25.46;35.64
69187;BME280;56301;56.864;60.554;2022-12-18T09:26:35;99314.66;;;25.47;35.37
69187;BME280;56301;56.864;60.554;2022-12-18T09:28:58;99314.47;;;25.48;35.61
69187;BME280;56301;56.864;60.554;2022-12-18T09:31:21;99312.25;;;25.52;35.56
69187;BME280;56301;56.864;60.554;2022-12-18T09:33:44;99303.28;;;25.51;35.66
69187;BME280;56301;56.864;60.554;2022-12-18T09:36:07;99300.59;;;25.51;35.53
69187;BME280;56301;56.864;60.554;2022-12-18T09:38:30;99293.66;;;25.49;35.02
69187;BME280;56301;56.864;60.554;2022-12-18T09:40:54;99285.84;;;25.54;35.51
69187;BME280;56301;56.864;60.554;2022-12-18T09:43:20;99282.78;;;25.57;35.26
69187;BME280;56301;56.864;60.554;2022-12-18T09:45:46;99277.53;;;25.55;34.48
69187;BME280;56301;56.864;60.554;2022-12-18T09:48:11;99277.53;;;25.55;35.06
69187;BME280;56301;56.864;60.554;2022-12-18T09:50:38;99278.56;;;25.54;35.55
69187;BME280;56301;56.864;60.554;2022-12-18T09:53:06;99267.88;;;25.53;35.40
69187;BME280;56301;56.864;60.554;2022-12-18T09:58:00;99244.53;;;25.52;34.97
69187;BME280;56301;56.864;60.554;2022-12-18T10:00:24;99237.25;;;25.52;34.78
69187;BME280;56301;56.864;60.554;2022-12-18T10:02:47;99236.59;;;25.50;35.86
69187;BME280;56301;56.864;60.554;2022-12-18T10:05:11;99230.16;;;25.51;35.33
69187;BME280;56301;56.864;60.554;2022-12-18T10:07:41;99234.91;;;25.49;35.72
69187;BME280;56301;56.864;60.554;2022-12-18T10:12:51;99216.94;;;25.48;35.70
69187;BME280;56301;56.864;60.554;2022-12-18T10:15:23;99219.13;;;25.53;35.80
69187;BME280;56301;56.864;60.554;2022-12-18T10:20:51;99229.13;;;25.52;36.06
69187;BME280;56301;56.864;60.554;2022-12-18T10:23:21;99223.19;;;25.49;35.34
69187;BME280;56301;56.864;60.554;2022-12-18T10:28:24;99209.00;;;25.47;35.53
69187;BME280;56301;56.864;60.554;2022-12-18T10:30:47;99210.03;;;25.45;35.94
69187;BME280;56301;56.864;60.554;2022-12-18T10:33:13;99212.75;;;25.45;35.37
69187;BME280;56301;56.864;60.554;2022-12-18T10:35:38;99205.09;;;25.49;35.76
69187;BME280;56301;56.864;60.554;2022-12-18T10:38:07;99213.88;;;25.51;35.27
69187;BME280;56301;56.864;60.554;2022-12-18T10:40:52;99209.31;;;25.52;35.80
69187;BME280;56301;56.864;60.554;2022-12-18T10:43:15;99199.31;;;25.52;36.00
69187;BME280;56301;56.864;60.554;2022-12-18T10:45:41;99190.53;;;25.50;35.31
69187;BME280;56301;56.864;60.554;2022-12-18T10:48:04;99189.00;;;25.48;35.86
69187;BME280;56301;56.864;60.554;2022-12-18T10:50:31;99174.63;;;25.47;35.87
69187;BME280;56301;56.864;60.554;2022-12-18T10:52:55;99177.34;;;25.47;35.83
69187;BME280;56301;56.864;60.554;2022-12-18T10:55:18;99160.41;;;25.45;36.18
69187;BME280;56301;56.864;60.554;2022-12-18T10:57:40;99158.56;;;25.45;36.11
69187;BME280;56301;56.864;60.554;2022-12-18T11:02:44;99166.84;;;25.44;35.72
69187;BME280;56301;56.864;60.554;2022-12-18T11:05:26;99155.19;;;25.43;35.79
69187;BME280;56301;56.864;60.554;2022-12-18T11:07:49;99151.44;;;25.44;35.23
69187;BME280;56301;56.864;60.554;2022-12-18T11:10:15;99150.44;;;25.45;35.60
69187;BME280;56301;56.864;60.554;2022-12-18T11:12:38;99139.41;;;25.47;36.11
69187;BME280;56301;56.864;60.554;2022-12-18T11:15:01;99127.72;;;25.47;36.28
69187;BME280;56301;56.864;60.554;2022-12-18T11:19:52;99123.16;;;25.47;35.91
69187;BME280;56301;56.864;60.554;2022-12-18T11:22:23;99121.47;;;25.46;35.45
69187;BME280;56301;56.864;60.554;2022-12-18T11:24:52;99103.16;;;25.48;35.33
69187;BME280;56301;56.864;60.554;2022-12-18T11:27:16;99106.06;;;25.47;35.73
69187;BME280;56301;56.864;60.554;2022-12-18T11:29:40;99093.16;;;25.49;36.27
69187;BME280;56301;56.864;60.554;2022-12-18T11:34:37;99080.09;;;25.52;35.36
69187;BME280;56301;56.864;60.554;2022-12-18T11:37:00;99077.22;;;25.54;34.93
69187;BME280;56301;56.864;60.554;2022-12-18T11:39:35;99069.56;;;25.57;35.00
69187;BME280;56301;56.864;60.554;2022-12-18T11:42:01;99059.09;;;25.54;35.27
69187;BME280;56301;56.864;60.554;2022-12-18T11:44:28;99045.47;;;25.62;35.17
69187;BME280;56301;56.864;60.554;2022-12-18T11:47:00;99045.88;;;25.74;35.38
69187;BME280;56301;56.864;60.554;2022-12-18T11:49:35;99030.78;;;25.80;35.36
69187;BME280;56301;56.864;60.554;2022-12-18T11:54:23;99008.63;;;25.91;35.23
69187;BME280;56301;56.864;60.554;2022-12-18T11:56:47;99017.44;;;25.93;34.91
69187;BME280;56301;56.864;60.554;2022-12-18T12:01:57;98999.09;;;25.95;35.58
69187;BME280;56301;56.864;60.554;2022-12-18T12:04:43;98997.22;;;25.96;36.27
69187;BME280;56301;56.864;60.554;2022-12-18T12:07:15;98991.63;;;25.97;35.02
69187;BME280;56301;56.864;60.554;2022-12-18T12:12:26;98974.34;;;25.98;34.97
69187;BME280;56301;56.864;60.554;2022-12-18T12:22:22;98955.16;;;26.00;35.11
69187;BME280;56301;56.864;60.554;2022-12-18T12:24:54;98954.31;;;25.99;35.40
69187;BME280;56301;56.864;60.554;2022-12-18T12:30:13;98946.00;;;26.01;35.07
69187;BME280;56301;56.864;60.554;2022-12-18T12:32:43;98941.44;;;26.01;35.15
69187;BME280;56301;56.864;60.554;2022-12-18T12:40:15;98906.81;;;26.03;34.61
69187;BME280;56301;56.864;60.554;2022-12-18T12:42:39;98898.69;;;26.03;35.01
69187;BME280;56301;56.864;60.554;2022-12-18T12:45:05;98890.09;;;26.00;35.22
69187;BME280;56301;56.864;60.554;2022-12-18T12:47:31;98883.66;;;26.01;34.62
69187;BME280;56301;56.864;60.554;2022-12-18T12:49:55;98869.25;;;26.00;34.68
69187;BME280;56301;56.864;60.554;2022-12-18T12:54:43;98858.41;;;26.00;34.37
69187;BME280;56301;56.864;60.554;2022-12-18T12:57:09;98852.31;;;25.98;35.01
69187;BME280;56301;56.864;60.554;2022-12-18T13:07:01;98827.25;;;25.96;35.24
69187;BME280;56301;56.864;60.554;2022-12-18T13:09:29;98828.31;;;25.95;34.81
69187;BME280;56301;56.864;60.554;2022-12-18T13:11:52;98813.72;;;25.96;35.09
69187;BME280;56301;56.864;60.554;2022-12-18T13:14:28;98807.44;;;25.96;34.27
69187;BME280;56301;56.864;60.554;2022-12-18T13:16:51;98796.59;;;25.96;34.58
69187;BME280;56301;56.864;60.554;2022-12-18T13:19:23;98793.72;;;25.97;34.59
69187;BME280;56301;56.864;60.554;2022-12-18T13:21:52;98780.16;;;25.97;34.25
69187;BME280;56301;56.864;60.554;2022-12-18T13:24:21;98775.75;;;25.96;34.65
69187;BME280;56301;56.864;60.554;2022-12-18T13:26:45;98777.84;;;25.94;34.95
69187;BME280;56301;56.864;60.554;2022-12-18T13:29:07;98777.84;;;25.94;34.54
69187;BME280;56301;56.864;60.554;2022-12-18T13:34:20;98772.78;;;25.91;34.92
69187;BME280;56301;56.864;60.554;2022-12-18T13:36:44;98763.63;;;25.92;34.57
69187;BME280;56301;56.864;60.554;2022-12-18T13:39:15;98766.78;;;25.96;35.44
69187;BME280;56301;56.864;60.554;2022-12-18T13:41:43;98754.06;;;25.96;35.72
69187;BME280;56301;56.864;60.554;2022-12-18T13:44:24;98746.97;;;25.95;35.10
69187;BME280;56301;56.864;60.554;2022-12-18T13:46:47;98746.97;;;25.95;35.42
69187;BME280;56301;56.864;60.554;2022-12-18T13:51:35;98726.13;;;25.96;34.98
69187;BME280;56301;56.864;60.554;2022-12-18T13:54:02;98724.44;;;25.95;35.05
69187;BME280;56301;56.864;60.554;2022-12-18T13:56:28;98712.94;;;25.92;35.06